createdAt,value
2023-04-07T00:00:46.758Z,4.16
2023-04-07T00:05:48.371Z,4.22
2023-04-07T00:10:49.934Z,4.24
2023-04-07T00:15:51.668Z,4.27
2023-04-07T00:20:53.162Z,4.35
2023-04-07T00:25:54.636Z,4.40
2023-04-07T00:30:56.135Z,4.36
2023-04-07T00:35:58.747Z,4.37
2023-04-07T00:41:00.840Z,4.39
2023-04-07T00:46:03.068Z,4.41
2023-04-07T00:51:06.853Z,4.45
2023-04-07T00:56:08.359Z,4.52
2023-04-07T01:01:20.251Z,4.53
2023-04-07T01:06:26.879Z,4.50
2023-04-07T01:11:31.292Z,4.49
2023-04-07T01:16:39.653Z,4.61
2023-04-07T01:21:45.193Z,4.67
2023-04-07T01:26:47.700Z,4.66
2023-04-07T01:31:50.621Z,4.72
2023-04-07T01:36:54.498Z,4.78
2023-04-07T01:41:58.117Z,4.80
2023-04-07T01:47:00.731Z,4.76
2023-04-07T01:52:03.017Z,4.86
2023-04-07T01:57:04.550Z,4.90
2023-04-07T02:02:06.293Z,4.85
2023-04-07T02:07:22.516Z,4.87
2023-04-07T02:12:27.521Z,4.91
2023-04-07T02:17:30.856Z,4.89
2023-04-07T02:22:33.295Z,4.88
2023-04-07T02:27:34.780Z,4.96
2023-04-07T02:32:36.274Z,5.03
2023-04-07T02:37:38.628Z,5.02
2023-04-07T02:42:40.740Z,5.06
2023-04-07T02:47:42.240Z,5.13
2023-04-07T02:52:43.730Z,5.17
2023-04-07T02:57:45.312Z,5.15
2023-04-07T03:02:46.977Z,5.20
2023-04-07T03:07:48.689Z,5.22
2023-04-07T03:12:50.256Z,5.18
2023-04-07T03:17:52.008Z,5.18
2023-04-07T03:22:53.610Z,5.26
2023-04-07T03:27:55.543Z,5.25
2023-04-07T03:32:57.072Z,5.23
2023-04-07T03:37:58.612Z,5.24
2023-04-07T03:43:00.345Z,5.29
2023-04-07T03:48:02.352Z,5.26
2023-04-07T03:53:03.981Z,5.29
2023-04-07T03:58:06.174Z,5.33
2023-04-07T04:03:08.043Z,5.30
2023-04-07T04:08:09.649Z,5.29
2023-04-07T04:13:11.219Z,5.34
2023-04-07T04:18:12.762Z,5.37
2023-04-07T04:23:15.042Z,5.40
2023-04-07T04:28:16.728Z,5.47
2023-04-07T04:33:18.206Z,5.45
2023-04-07T04:38:19.738Z,5.44
2023-04-07T04:43:21.235Z,5.52
2023-04-07T04:48:22.745Z,5.57
2023-04-07T04:53:24.249Z,5.63
2023-04-07T04:58:26.333Z,5.67
2023-04-07T05:03:29.260Z,5.70
2023-04-07T05:08:31.308Z,5.75
2023-04-07T05:13:32.853Z,5.86
2023-04-07T05:18:34.435Z,5.83
2023-04-07T05:23:36.419Z,5.81
2023-04-07T05:28:40.061Z,5.88
2023-04-07T05:33:41.515Z,5.91
2023-04-07T05:38:43.023Z,5.98
2023-04-07T05:43:44.525Z,6.04
2023-04-07T05:48:46.428Z,6.06
2023-04-07T05:53:47.901Z,6.16
2023-04-07T05:58:49.376Z,6.22
2023-04-07T06:03:51.073Z,6.23
2023-04-07T06:08:52.817Z,6.26
2023-04-07T06:13:54.328Z,6.37
2023-04-07T06:18:55.920Z,6.42
2023-04-07T06:23:57.387Z,6.50
2023-04-07T06:28:59.473Z,6.63
2023-04-07T06:34:01.154Z,6.80
2023-04-07T06:39:02.922Z,6.95
2023-04-07T06:44:06.495Z,7.05
2023-04-07T06:49:09.065Z,7.17
2023-04-07T06:54:14.054Z,7.27
2023-04-07T06:59:15.872Z,7.34
2023-04-07T07:04:17.563Z,7.43
2023-04-07T07:09:19.306Z,7.42
2023-04-07T07:14:20.802Z,7.47
2023-04-07T07:19:22.328Z,7.54
2023-04-07T07:24:23.810Z,7.52
2023-04-07T07:29:25.410Z,7.62
2023-04-07T07:34:26.973Z,7.70
2023-04-07T07:39:29.970Z,7.70
2023-04-07T07:44:32.582Z,7.77
2023-04-07T07:49:34.228Z,7.88
2023-04-07T07:54:35.879Z,8.00
2023-04-07T07:59:37.371Z,8.06
2023-04-07T08:04:39.105Z,8.14
2023-04-07T08:09:40.688Z,8.18
2023-04-07T08:14:42.174Z,8.19
2023-04-07T08:19:43.683Z,8.31
2023-04-07T08:24:45.438Z,8.65
2023-04-07T08:29:58.216Z,8.94
2023-04-07T08:34:59.896Z,9.22
2023-04-07T08:40:02.984Z,9.62
2023-04-07T08:45:06.721Z,9.91
2023-04-07T08:50:10.539Z,10.00
2023-04-07T08:55:12.255Z,9.95
2023-04-07T09:00:14.738Z,9.96
2023-04-07T09:05:16.350Z,9.92
2023-04-07T09:10:18.152Z,9.91
2023-04-07T09:15:20.858Z,9.91
2023-04-07T09:20:22.423Z,9.93
2023-04-07T09:25:27.237Z,9.84
2023-04-07T09:30:31.378Z,9.77
2023-04-07T09:35:51.002Z,9.84
2023-04-07T09:41:06.282Z,9.84
2023-04-07T09:46:12.604Z,9.88
2023-04-07T09:51:18.418Z,9.90
2023-04-07T09:56:24.220Z,9.96
2023-04-07T10:01:25.878Z,10.07
2023-04-07T10:06:27.667Z,10.12
2023-04-07T10:11:29.485Z,10.22
2023-04-07T10:16:31.765Z,10.28
2023-04-07T10:21:37.865Z,10.34
2023-04-07T10:26:41.826Z,10.44
2023-04-07T10:31:44.706Z,10.48
2023-04-07T10:37:09.710Z,10.49
2023-04-07T10:42:49.350Z,10.50
2023-04-07T10:48:03.104Z,10.54
2023-04-07T10:53:07.280Z,10.61
2023-04-07T10:58:29.014Z,10.56
2023-04-07T11:03:57.070Z,10.56
2023-04-07T11:08:58.867Z,10.58
2023-04-07T11:14:00.573Z,10.61
2023-04-07T11:19:02.071Z,10.67
2023-04-07T11:24:05.770Z,10.81
2023-04-07T11:29:08.106Z,11.02
2023-04-07T11:34:09.745Z,11.10
2023-04-07T11:39:22.135Z,11.14
2023-04-07T11:44:26.227Z,11.07
2023-04-07T11:49:28.668Z,10.95
2023-04-07T11:54:41.453Z,10.87
2023-04-07T11:59:42.982Z,10.75
2023-04-07T12:04:57.457Z,10.54
2023-04-07T12:10:17.896Z,10.37
2023-04-07T12:15:20.599Z,10.34
2023-04-07T12:20:22.139Z,10.50
2023-04-07T12:25:23.788Z,10.66
2023-04-07T12:30:28.777Z,10.77
2023-04-07T12:35:30.984Z,10.91
2023-04-07T12:40:32.535Z,11.10
2023-04-07T12:45:34.222Z,11.29
2023-04-07T12:50:37.489Z,11.37
2023-04-07T12:55:38.894Z,11.41
2023-04-07T13:00:42.147Z,11.38
2023-04-07T13:05:43.643Z,11.38
2023-04-07T13:10:45.125Z,11.32
2023-04-07T13:15:46.979Z,11.35
2023-04-07T13:20:58.565Z,11.38
2023-04-07T13:26:10.025Z,11.42
2023-04-07T13:31:15.790Z,11.54
2023-04-07T13:36:17.636Z,11.49
2023-04-07T13:41:19.132Z,11.34
2023-04-07T13:46:28.379Z,10.88
2023-04-07T13:51:30.704Z,10.24
2023-04-07T13:56:32.375Z,9.92
2023-04-07T14:01:35.774Z,9.76
2023-04-07T14:06:38.016Z,9.63
2023-04-07T14:11:39.614Z,9.50
2023-04-07T14:16:41.572Z,9.53
2023-04-07T14:21:43.049Z,9.63
2023-04-07T14:26:45.505Z,9.83
2023-04-07T14:31:51.928Z,9.90
2023-04-07T14:36:55.402Z,9.91
2023-04-07T14:41:56.898Z,9.93
2023-04-07T14:46:58.407Z,10.04
2023-04-07T14:51:59.908Z,10.13
2023-04-07T14:57:01.475Z,10.20
2023-04-07T15:02:03.108Z,10.12
2023-04-07T15:07:05.335Z,10.08
2023-04-07T15:12:06.919Z,9.94
2023-04-07T15:17:08.467Z,9.90
2023-04-07T15:22:10.609Z,9.85
2023-04-07T15:27:12.084Z,9.90
2023-04-07T15:32:13.718Z,9.86
2023-04-07T15:37:17.314Z,9.74
2023-04-07T15:42:18.912Z,9.69
2023-04-07T15:47:20.405Z,9.59
2023-04-07T15:52:21.928Z,9.56
2023-04-07T15:57:23.415Z,9.58
2023-04-07T16:02:25.122Z,9.58
2023-04-07T16:07:27.565Z,9.52
2023-04-07T16:12:29.129Z,9.49
2023-04-07T16:17:30.693Z,9.47
2023-04-07T16:22:32.289Z,9.38
2023-04-07T16:27:33.794Z,9.30
2023-04-07T16:32:35.428Z,9.17
2023-04-07T16:37:37.300Z,9.04
2023-04-07T16:42:39.060Z,8.97
2023-04-07T16:47:44.272Z,8.89
2023-04-07T16:52:47.734Z,8.72
2023-04-07T16:57:50.166Z,8.58
2023-04-07T17:02:51.735Z,8.45
2023-04-07T17:07:53.939Z,8.44
2023-04-07T17:12:56.836Z,8.33
2023-04-07T17:17:58.773Z,8.23
2023-04-07T17:23:00.581Z,8.16
2023-04-07T17:28:02.222Z,8.16
2023-04-07T17:33:04.632Z,8.08
2023-04-07T17:38:06.732Z,7.95
2023-04-07T17:43:08.412Z,7.84
2023-04-07T17:48:12.177Z,7.76
2023-04-07T17:53:14.075Z,7.75
2023-04-07T17:58:15.805Z,7.78
2023-04-07T18:03:17.888Z,7.76
2023-04-07T18:08:19.688Z,7.69
2023-04-07T18:13:21.213Z,7.61
2023-04-07T18:18:22.890Z,7.53
2023-04-07T18:23:24.501Z,7.51
2023-04-07T18:28:26.327Z,7.56
2023-04-07T18:33:32.889Z,7.56
2023-04-07T18:38:36.033Z,7.51
2023-04-07T18:43:37.928Z,7.46
2023-04-07T18:48:41.039Z,7.47
2023-04-07T18:53:42.889Z,7.52
2023-04-07T18:58:46.013Z,7.51
2023-04-07T19:03:48.366Z,7.43
2023-04-07T19:08:51.427Z,7.49
2023-04-07T19:13:53.431Z,7.48
2023-04-07T19:18:55.342Z,7.39
2023-04-07T19:23:59.420Z,7.36
2023-04-07T19:29:03.265Z,7.31
2023-04-07T19:34:04.797Z,7.19
2023-04-07T19:39:06.434Z,7.11
2023-04-07T19:44:08.160Z,7.07
2023-04-07T19:49:10.540Z,7.14
2023-04-07T19:54:12.170Z,7.19
2023-04-07T19:59:13.644Z,7.12
2023-04-07T20:04:15.493Z,7.00
2023-04-07T20:09:17.474Z,6.79
2023-04-07T20:14:19.040Z,6.62
2023-04-07T20:19:21.020Z,6.46
2023-04-07T20:24:22.796Z,6.32
2023-04-07T20:29:24.283Z,6.17
2023-04-07T20:34:25.848Z,5.98
2023-04-07T20:39:27.349Z,5.91
2023-04-07T20:44:29.374Z,5.96
2023-04-07T20:49:30.868Z,5.98
2023-04-07T20:54:33.184Z,5.93
2023-04-07T20:59:34.666Z,5.87
2023-04-07T21:04:37.053Z,5.86
2023-04-07T21:09:38.830Z,5.98
2023-04-07T21:14:40.498Z,5.99
2023-04-07T21:19:42.315Z,5.93
2023-04-07T21:24:43.828Z,5.86
2023-04-07T21:29:45.508Z,5.89
2023-04-07T21:34:47.011Z,5.91
2023-04-07T21:39:48.758Z,5.89
2023-04-07T21:44:50.255Z,5.83
2023-04-07T21:49:51.790Z,5.77
2023-04-07T21:54:53.261Z,5.74
2023-04-07T21:59:54.756Z,5.81
2023-04-07T22:04:56.245Z,5.86
2023-04-07T22:09:58.343Z,5.83
2023-04-07T22:14:59.970Z,5.81
2023-04-07T22:20:01.529Z,5.77
2023-04-07T22:25:03.476Z,5.72
2023-04-07T22:30:09.967Z,5.80
2023-04-07T22:35:11.656Z,5.81
2023-04-07T22:40:13.178Z,5.78
2023-04-07T22:45:14.907Z,5.73
2023-04-07T22:50:16.856Z,5.70
2023-04-07T22:55:19.501Z,5.67
2023-04-07T23:00:29.336Z,5.63
2023-04-07T23:05:31.034Z,5.68
2023-04-07T23:10:32.536Z,5.69
2023-04-07T23:15:35.937Z,5.64
2023-04-07T23:20:37.465Z,5.60
2023-04-07T23:25:38.927Z,5.58
2023-04-07T23:30:40.545Z,5.53
2023-04-07T23:35:42.070Z,5.62
2023-04-07T23:40:43.619Z,5.70
2023-04-07T23:45:45.102Z,5.72
2023-04-07T23:50:49.058Z,5.71
2023-04-07T23:55:50.966Z,5.69
